createdAt,value
2023-03-26T00:00:08.333Z,3.30
2023-03-26T00:01:08.352Z,3.30
2023-03-26T00:02:08.701Z,2.30
2023-03-26T00:03:08.367Z,3.40
2023-03-26T00:04:08.321Z,3.00
2023-03-26T00:05:08.309Z,3.10
2023-03-26T00:06:08.613Z,3.30
2023-03-26T00:07:08.263Z,3.50
2023-03-26T00:08:08.269Z,2.70
2023-03-26T00:09:08.272Z,2.90
2023-03-26T00:10:08.242Z,2.90
2023-03-26T00:11:08.219Z,3.00
2023-03-26T00:12:08.398Z,3.40
2023-03-26T00:13:08.235Z,3.00
2023-03-26T00:14:08.360Z,3.20
2023-03-26T00:15:08.165Z,3.20
2023-03-26T00:16:08.217Z,3.40
2023-03-26T00:17:08.143Z,3.50
2023-03-26T00:18:08.212Z,3.50
2023-03-26T00:19:08.114Z,3.30
2023-03-26T00:20:08.119Z,3.30
2023-03-26T00:21:08.107Z,3.00
2023-03-26T00:22:08.084Z,3.40
2023-03-26T00:23:08.093Z,3.50
2023-03-26T00:24:08.095Z,3.10
2023-03-26T00:25:08.184Z,3.20
2023-03-26T00:26:08.062Z,3.00
2023-03-26T00:27:08.167Z,3.80
2023-03-26T00:28:08.192Z,2.70
2023-03-26T00:29:08.129Z,3.70
2023-03-26T00:30:08.054Z,2.90
2023-03-26T00:31:08.055Z,2.90
2023-03-26T00:32:08.127Z,2.90
2023-03-26T00:33:08.013Z,2.80
2023-03-26T00:34:08.018Z,2.80
2023-03-26T00:35:07.954Z,3.20
2023-03-26T00:36:07.965Z,3.50
2023-03-26T00:37:07.914Z,3.00
2023-03-26T00:38:07.961Z,3.00
2023-03-26T00:39:07.927Z,3.10
2023-03-26T00:40:07.906Z,2.80
2023-03-26T00:41:07.881Z,2.90
2023-03-26T00:42:07.886Z,2.70
2023-03-26T00:43:07.873Z,2.40
2023-03-26T00:44:07.865Z,3.20
2023-03-26T00:45:07.859Z,3.00
2023-03-26T00:46:07.863Z,2.90
2023-03-26T00:47:07.845Z,3.60
2023-03-26T00:48:07.859Z,2.80
2023-03-26T00:49:07.815Z,2.90
2023-03-26T00:50:07.781Z,2.90
2023-03-26T00:51:07.762Z,2.90
2023-03-26T00:52:07.754Z,2.70
2023-03-26T00:53:07.763Z,3.00
2023-03-26T00:54:07.770Z,3.40
2023-03-26T00:55:07.734Z,2.80
2023-03-26T00:56:07.702Z,3.00
2023-03-26T00:57:07.704Z,3.80
2023-03-26T00:58:07.696Z,2.60
2023-03-26T00:59:07.699Z,2.70
2023-03-26T01:00:07.686Z,3.30
2023-03-26T01:01:07.696Z,2.40
2023-03-26T01:02:07.649Z,2.90
2023-03-26T01:03:07.732Z,2.50
2023-03-26T01:04:09.035Z,2.70
2023-03-26T01:05:07.705Z,2.30
2023-03-26T01:06:07.614Z,2.20
2023-03-26T01:07:07.599Z,2.10
2023-03-26T01:08:07.572Z,1.90
2023-03-26T01:09:07.618Z,2.10
2023-03-26T01:10:07.578Z,1.70
2023-03-26T01:11:07.590Z,1.80
2023-03-26T01:12:07.561Z,2.00
2023-03-26T01:13:07.527Z,1.90
2023-03-26T01:14:07.538Z,2.00
2023-03-26T01:15:07.507Z,1.90
2023-03-26T01:16:07.567Z,2.00
2023-03-26T01:17:07.496Z,1.80
2023-03-26T01:18:07.480Z,1.70
2023-03-26T01:19:07.472Z,2.50
2023-03-26T01:20:07.432Z,1.70
2023-03-26T01:21:07.450Z,2.20
2023-03-26T01:22:07.441Z,2.10
2023-03-26T01:23:07.437Z,2.00
2023-03-26T01:24:07.430Z,1.80
2023-03-26T01:25:07.411Z,2.50
2023-03-26T01:26:07.388Z,2.00
2023-03-26T01:27:07.376Z,2.20
2023-03-26T01:28:07.350Z,2.40
2023-03-26T01:29:07.371Z,2.30
2023-03-26T01:30:07.351Z,2.40
2023-03-26T01:31:07.328Z,2.70
2023-03-26T01:32:07.312Z,2.20
2023-03-26T01:33:07.427Z,2.30
2023-03-26T01:34:07.315Z,2.50
2023-03-26T01:35:07.271Z,2.20
2023-03-26T01:36:07.346Z,2.50
2023-03-26T01:37:07.253Z,2.30
2023-03-26T01:38:07.259Z,2.20
2023-03-26T01:39:07.249Z,2.50
2023-03-26T01:40:07.333Z,2.10
2023-03-26T01:41:07.204Z,2.50
2023-03-26T01:42:07.289Z,2.50
2023-03-26T01:43:07.207Z,2.50
2023-03-26T01:44:07.210Z,2.30
2023-03-26T01:45:07.185Z,2.30
2023-03-26T01:46:07.185Z,2.30
2023-03-26T01:47:07.172Z,2.30
2023-03-26T01:48:07.166Z,2.40
2023-03-26T01:49:07.138Z,2.20
2023-03-26T01:50:07.118Z,2.50
2023-03-26T01:51:07.094Z,2.30
2023-03-26T01:52:07.099Z,3.10
2023-03-26T01:53:07.075Z,2.50
2023-03-26T01:54:07.129Z,2.50
2023-03-26T01:55:07.055Z,3.20
2023-03-26T01:56:07.035Z,3.00
2023-03-26T01:57:07.109Z,2.10
2023-03-26T01:58:07.021Z,2.40
2023-03-26T01:59:07.032Z,2.40
2023-03-26T02:00:06.993Z,2.30
2023-03-26T02:01:07.002Z,2.50
2023-03-26T02:02:07.076Z,2.30
2023-03-26T02:03:07.066Z,2.70
2023-03-26T02:04:06.983Z,2.40
2023-03-26T02:05:06.950Z,2.40
2023-03-26T02:06:06.921Z,2.20
2023-03-26T02:07:06.919Z,1.90
2023-03-26T02:08:06.915Z,2.10
2023-03-26T02:09:06.907Z,2.00
2023-03-26T02:10:06.894Z,2.20
2023-03-26T02:11:06.890Z,2.40
2023-03-26T02:12:06.863Z,3.00
2023-03-26T02:13:06.836Z,2.20
2023-03-26T02:14:06.865Z,2.30
2023-03-26T02:15:06.818Z,2.40
2023-03-26T02:16:06.885Z,2.70
2023-03-26T02:17:06.806Z,2.50
2023-03-26T02:18:06.827Z,2.50
2023-03-26T02:19:06.802Z,1.80
2023-03-26T02:20:06.777Z,2.10
2023-03-26T02:21:06.852Z,2.10
2023-03-26T02:22:06.782Z,2.50
2023-03-26T02:23:06.733Z,2.10
2023-03-26T02:24:06.745Z,2.70
2023-03-26T02:25:06.728Z,2.50
2023-03-26T02:26:06.725Z,2.30
2023-03-26T02:27:06.697Z,2.80
2023-03-26T02:28:06.701Z,2.20
2023-03-26T02:29:06.690Z,2.80
2023-03-26T02:30:06.675Z,2.90
2023-03-26T02:31:06.641Z,2.10
2023-03-26T02:32:06.633Z,2.40
2023-03-26T02:33:06.638Z,2.30
2023-03-26T02:34:06.664Z,2.00
2023-03-26T02:35:06.807Z,2.40
2023-03-26T02:36:06.628Z,1.70
2023-03-26T02:37:06.579Z,2.20
2023-03-26T02:38:06.568Z,2.10
2023-03-26T02:39:06.594Z,2.20
2023-03-26T02:40:06.554Z,2.40
2023-03-26T02:41:06.538Z,2.20
2023-03-26T02:42:06.517Z,1.90
2023-03-26T02:43:06.530Z,2.00
2023-03-26T02:44:06.516Z,2.10
2023-03-26T02:45:06.489Z,2.10
2023-03-26T02:46:06.519Z,1.80
2023-03-26T02:47:06.471Z,1.90
2023-03-26T02:48:06.453Z,2.00
2023-03-26T02:49:06.452Z,2.10
2023-03-26T02:50:06.486Z,2.30
2023-03-26T02:51:06.489Z,1.70
2023-03-26T02:52:06.729Z,2.10
2023-03-26T02:53:06.397Z,1.90
2023-03-26T02:54:06.407Z,1.70
2023-03-26T02:55:06.394Z,1.90
2023-03-26T02:56:06.377Z,2.30
2023-03-26T02:57:06.399Z,2.50
2023-03-26T02:58:06.343Z,2.00
2023-03-26T02:59:06.370Z,2.50
2023-03-26T03:00:06.327Z,2.30
2023-03-26T03:01:06.349Z,1.80
2023-03-26T03:02:06.405Z,1.80
2023-03-26T03:03:06.340Z,2.00
2023-03-26T03:04:06.295Z,2.40
2023-03-26T03:05:06.277Z,2.30
2023-03-26T03:06:06.267Z,2.00
2023-03-26T03:07:06.249Z,2.00
2023-03-26T03:08:06.252Z,1.90
2023-03-26T03:09:06.231Z,1.80
2023-03-26T03:10:06.217Z,1.80
2023-03-26T03:11:06.192Z,2.40
2023-03-26T03:12:06.206Z,1.80
2023-03-26T03:13:06.185Z,2.00
2023-03-26T03:14:06.187Z,1.40
2023-03-26T03:15:06.149Z,1.80
2023-03-26T03:16:06.155Z,1.80
2023-03-26T03:17:06.181Z,2.20
2023-03-26T03:18:06.145Z,1.80
2023-03-26T03:19:06.153Z,2.20
2023-03-26T03:20:06.092Z,2.50
2023-03-26T03:21:06.083Z,1.70
2023-03-26T03:22:06.090Z,1.90
2023-03-26T03:23:06.068Z,1.90
2023-03-26T03:24:06.081Z,1.70
2023-03-26T03:25:06.037Z,1.70
2023-03-26T03:26:06.056Z,2.20
2023-03-26T03:27:06.022Z,1.80
2023-03-26T03:28:06.027Z,1.80
2023-03-26T03:29:06.044Z,1.70
2023-03-26T03:30:06.010Z,1.60
2023-03-26T03:31:06.017Z,2.10
2023-03-26T03:32:05.967Z,1.90
2023-03-26T03:33:06.101Z,1.80
2023-03-26T03:34:05.940Z,1.80
2023-03-26T03:35:05.967Z,1.50
2023-03-26T03:36:05.958Z,1.70
2023-03-26T03:37:05.968Z,2.10
2023-03-26T03:38:05.897Z,2.00
2023-03-26T03:39:05.881Z,1.90
2023-03-26T03:40:05.894Z,1.60
2023-03-26T03:41:05.870Z,1.80
2023-03-26T03:42:05.851Z,2.10
2023-03-26T03:43:05.841Z,1.90
2023-03-26T03:44:05.854Z,1.90
2023-03-26T03:45:05.866Z,1.70
2023-03-26T03:46:05.855Z,2.30
2023-03-26T03:47:05.815Z,1.80
2023-03-26T03:48:12.348Z,1.40
2023-03-26T03:49:05.769Z,1.80
2023-03-26T03:50:05.785Z,1.70
2023-03-26T03:51:05.752Z,1.70
2023-03-26T03:52:05.749Z,1.70
2023-03-26T03:53:05.794Z,2.40
2023-03-26T03:54:05.741Z,2.10
2023-03-26T03:55:05.732Z,1.60
2023-03-26T03:56:05.713Z,2.10
2023-03-26T03:57:05.734Z,2.00
2023-03-26T03:58:05.683Z,2.10
2023-03-26T03:59:05.699Z,2.10
2023-03-26T04:00:06.989Z,2.40
2023-03-26T04:01:05.653Z,2.10
2023-03-26T04:02:05.631Z,2.00
2023-03-26T04:03:05.676Z,2.00
2023-03-26T04:04:05.748Z,2.00
2023-03-26T04:05:05.613Z,2.00
2023-03-26T04:06:05.591Z,2.00
2023-03-26T04:07:05.594Z,1.90
2023-03-26T04:08:05.584Z,2.00
2023-03-26T04:09:05.582Z,1.50
2023-03-26T04:10:05.584Z,2.50
2023-03-26T04:11:05.545Z,1.80
2023-03-26T04:12:05.547Z,2.10
2023-03-26T04:13:05.511Z,2.00
2023-03-26T04:14:05.511Z,2.50
2023-03-26T04:15:05.517Z,2.30
2023-03-26T04:16:05.513Z,2.00
2023-03-26T04:17:05.471Z,2.40
2023-03-26T04:18:05.470Z,2.10
2023-03-26T04:19:05.458Z,2.30
2023-03-26T04:20:05.472Z,2.40
2023-03-26T04:21:05.432Z,2.60
2023-03-26T04:22:05.416Z,2.00
2023-03-26T04:23:05.419Z,2.10
2023-03-26T04:24:05.408Z,1.90
2023-03-26T04:25:05.455Z,2.10
2023-03-26T04:26:05.373Z,2.70
2023-03-26T04:27:05.349Z,1.80
2023-03-26T04:28:05.367Z,2.10
2023-03-26T04:29:05.338Z,2.80
2023-03-26T04:30:05.351Z,2.60
2023-03-26T04:31:05.440Z,2.20
2023-03-26T04:32:05.305Z,2.10
2023-03-26T04:33:05.348Z,1.80
2023-03-26T04:34:05.287Z,2.10
2023-03-26T04:35:05.303Z,2.20
2023-03-26T04:36:05.306Z,2.20
2023-03-26T04:37:05.248Z,2.40
2023-03-26T04:38:05.240Z,2.00
2023-03-26T04:39:05.339Z,1.80
2023-03-26T04:40:05.240Z,1.80
2023-03-26T04:41:05.265Z,2.20
2023-03-26T04:42:05.224Z,2.70
2023-03-26T04:43:05.245Z,2.10
2023-03-26T04:44:05.180Z,2.40
2023-03-26T04:45:05.184Z,2.50
2023-03-26T04:46:05.168Z,1.80
2023-03-26T04:47:05.145Z,2.10
2023-03-26T04:48:05.188Z,2.20
2023-03-26T04:49:05.135Z,2.70
2023-03-26T04:50:05.155Z,2.00
2023-03-26T04:51:05.107Z,1.80
2023-03-26T04:52:05.074Z,2.30
2023-03-26T04:53:05.061Z,2.10
2023-03-26T04:54:05.083Z,2.40
2023-03-26T04:55:05.138Z,2.10
2023-03-26T04:56:05.033Z,2.10
2023-03-26T04:57:05.097Z,2.40
2023-03-26T04:58:05.020Z,2.00
2023-03-26T04:59:05.008Z,2.90
2023-03-26T05:00:05.014Z,1.90
2023-03-26T05:01:10.312Z,1.90
2023-03-26T05:02:05.016Z,2.60
2023-03-26T05:03:05.101Z,2.50
2023-03-26T05:04:05.054Z,2.70
2023-03-26T05:05:05.005Z,2.60
2023-03-26T05:06:05.019Z,2.30
2023-03-26T05:07:04.931Z,2.50
2023-03-26T05:08:04.948Z,2.60
2023-03-26T05:09:04.928Z,2.50
2023-03-26T05:10:04.925Z,2.70
2023-03-26T05:11:04.888Z,2.10
2023-03-26T05:12:04.903Z,2.60
2023-03-26T05:13:04.862Z,1.90
2023-03-26T05:14:04.845Z,2.30
2023-03-26T05:15:04.849Z,2.00
2023-03-26T05:16:04.848Z,2.40
2023-03-26T05:17:04.817Z,2.60
2023-03-26T05:18:04.858Z,1.80
2023-03-26T05:19:04.775Z,2.30
2023-03-26T05:20:04.802Z,1.70
2023-03-26T05:21:04.755Z,2.00
2023-03-26T05:22:04.750Z,1.90
2023-03-26T05:23:04.735Z,1.80
2023-03-26T05:24:04.734Z,1.90
2023-03-26T05:25:04.737Z,1.60
2023-03-26T05:26:04.699Z,1.70
2023-03-26T05:27:04.696Z,2.20
2023-03-26T05:28:04.670Z,1.90
2023-03-26T05:29:04.670Z,2.10
2023-03-26T05:30:04.683Z,2.00
2023-03-26T05:31:04.638Z,1.80
2023-03-26T05:32:04.630Z,1.90
2023-03-26T05:33:04.807Z,2.00
2023-03-26T05:34:04.620Z,1.50
2023-03-26T05:35:04.625Z,2.10
2023-03-26T05:36:04.603Z,2.30
2023-03-26T05:37:04.592Z,2.10
2023-03-26T05:38:04.568Z,1.70
2023-03-26T05:39:04.555Z,1.80
2023-03-26T05:40:04.579Z,2.30
2023-03-26T05:41:04.534Z,2.60
2023-03-26T05:42:04.528Z,2.40
2023-03-26T05:43:04.526Z,2.20
2023-03-26T05:44:04.504Z,2.00
2023-03-26T05:45:04.577Z,2.30
2023-03-26T05:46:04.512Z,2.00
2023-03-26T05:47:04.476Z,2.00
2023-03-26T05:48:04.486Z,2.20
2023-03-26T05:49:04.449Z,1.70
2023-03-26T05:50:04.470Z,1.80
2023-03-26T05:51:04.425Z,2.40
2023-03-26T05:52:04.420Z,1.40
2023-03-26T05:53:04.413Z,1.80
2023-03-26T05:54:04.389Z,2.00
2023-03-26T05:55:04.445Z,1.60
2023-03-26T05:56:04.380Z,1.70
2023-03-26T05:57:04.413Z,1.90
2023-03-26T05:58:04.343Z,2.20
2023-03-26T05:59:04.339Z,1.80
2023-03-26T06:00:04.382Z,1.60
2023-03-26T06:01:04.305Z,2.20
2023-03-26T06:02:04.304Z,2.10
2023-03-26T06:03:04.484Z,1.90
2023-03-26T06:04:04.356Z,2.00
2023-03-26T06:05:04.295Z,1.80
2023-03-26T06:06:04.261Z,1.70
2023-03-26T06:07:04.266Z,2.10
2023-03-26T06:08:04.255Z,1.90
2023-03-26T06:09:04.244Z,1.90
2023-03-26T06:10:04.232Z,1.60
2023-03-26T06:11:04.207Z,1.60
2023-03-26T06:12:04.217Z,2.40
2023-03-26T06:13:04.188Z,1.50
2023-03-26T06:14:04.165Z,1.50
2023-03-26T06:15:04.175Z,1.70
2023-03-26T06:16:04.187Z,1.70
2023-03-26T06:17:04.133Z,2.30
2023-03-26T06:18:04.206Z,2.00
2023-03-26T06:19:04.175Z,1.50
2023-03-26T06:20:04.129Z,1.80
2023-03-26T06:21:04.126Z,1.70
2023-03-26T06:22:04.096Z,1.70
2023-03-26T06:23:04.071Z,1.70
2023-03-26T06:24:04.064Z,1.90
2023-03-26T06:25:04.090Z,1.60
2023-03-26T06:26:04.036Z,1.60
2023-03-26T06:27:04.020Z,1.90
2023-03-26T06:28:04.032Z,1.90
2023-03-26T06:29:04.016Z,1.80
2023-03-26T06:30:04.022Z,1.70
2023-03-26T06:31:04.031Z,2.10
2023-03-26T06:32:16.310Z,2.00
2023-03-26T06:33:04.018Z,1.90
2023-03-26T06:34:03.976Z,1.80
2023-03-26T06:35:03.955Z,1.80
2023-03-26T06:36:03.989Z,1.70
2023-03-26T06:37:03.914Z,1.90
2023-03-26T06:38:03.908Z,1.90
2023-03-26T06:39:07.845Z,1.70
2023-03-26T06:40:03.899Z,2.00
2023-03-26T06:41:03.879Z,1.90
2023-03-26T06:42:03.869Z,1.60
2023-03-26T06:43:08.753Z,1.90
2023-03-26T06:44:03.862Z,1.80
2023-03-26T06:45:03.854Z,2.10
2023-03-26T06:46:03.998Z,1.90
2023-03-26T06:47:03.802Z,2.00
2023-03-26T06:48:03.855Z,1.70
2023-03-26T06:49:03.787Z,2.60
2023-03-26T06:50:03.793Z,2.10
2023-03-26T06:51:03.787Z,2.20
2023-03-26T06:52:03.749Z,1.90
2023-03-26T06:53:03.769Z,2.20
2023-03-26T06:54:03.811Z,2.10
2023-03-26T06:55:03.791Z,2.10
2023-03-26T06:56:03.716Z,2.30
2023-03-26T06:57:03.742Z,1.70
2023-03-26T06:58:03.684Z,2.20
2023-03-26T06:59:03.732Z,1.80
2023-03-26T07:00:03.702Z,1.90
2023-03-26T07:01:03.710Z,2.30
2023-03-26T07:02:03.689Z,2.50
2023-03-26T07:03:03.704Z,2.30
2023-03-26T07:04:03.729Z,1.90
2023-03-26T07:05:03.621Z,2.40
2023-03-26T07:06:03.627Z,1.90
2023-03-26T07:07:03.592Z,2.10
2023-03-26T07:08:03.592Z,2.20
2023-03-26T07:09:03.565Z,1.90
2023-03-26T07:10:03.598Z,2.80
2023-03-26T07:11:03.610Z,2.30
2023-03-26T07:12:03.552Z,2.20
2023-03-26T07:13:03.540Z,1.80
2023-03-26T07:14:03.515Z,2.40
2023-03-26T07:15:03.529Z,2.30
2023-03-26T07:16:03.549Z,2.70
2023-03-26T07:17:03.514Z,2.30
2023-03-26T07:18:03.543Z,2.30
2023-03-26T07:19:03.469Z,2.10
2023-03-26T07:20:03.475Z,2.60
2023-03-26T07:21:03.455Z,2.30
2023-03-26T07:22:03.458Z,2.10
2023-03-26T07:23:03.445Z,1.90
2023-03-26T07:24:03.613Z,2.40
2023-03-26T07:25:03.405Z,2.40
2023-03-26T07:26:03.420Z,2.30
2023-03-26T07:27:03.415Z,2.20
2023-03-26T07:28:03.431Z,2.40
2023-03-26T07:29:04.209Z,2.30
2023-03-26T07:30:03.422Z,2.00
2023-03-26T07:31:03.378Z,2.10
2023-03-26T07:32:03.409Z,2.40
2023-03-26T07:33:03.328Z,2.10
2023-03-26T07:34:03.326Z,1.90
2023-03-26T07:35:03.280Z,2.50
2023-03-26T07:36:03.328Z,2.50
2023-03-26T07:37:03.247Z,2.10
2023-03-26T07:38:03.239Z,1.70
2023-03-26T07:39:03.250Z,2.40
2023-03-26T07:40:03.222Z,2.30
2023-03-26T07:41:03.228Z,2.20
2023-03-26T07:42:03.201Z,2.40
2023-03-26T07:43:03.372Z,2.50
2023-03-26T07:44:03.192Z,2.00
2023-03-26T07:45:03.182Z,2.20
2023-03-26T07:46:03.251Z,2.20
2023-03-26T07:47:03.148Z,2.30
2023-03-26T07:48:03.151Z,2.40
2023-03-26T07:49:03.121Z,1.90
2023-03-26T07:50:03.141Z,2.20
2023-03-26T07:51:03.175Z,2.40
2023-03-26T07:52:03.141Z,2.60
2023-03-26T07:53:03.072Z,2.40
2023-03-26T07:54:03.073Z,2.20
2023-03-26T07:55:03.068Z,2.50
2023-03-26T07:56:03.126Z,2.60
2023-03-26T07:57:04.340Z,2.20
2023-03-26T07:58:03.052Z,2.20
2023-03-26T07:59:03.006Z,2.20
2023-03-26T08:00:03.006Z,2.40
2023-03-26T08:01:03.000Z,2.30
2023-03-26T08:02:02.997Z,2.50
2023-03-26T08:03:03.096Z,2.50
2023-03-26T08:04:23.250Z,2.20
2023-03-26T08:05:03.057Z,2.40
2023-03-26T08:06:02.947Z,2.40
2023-03-26T08:07:02.938Z,2.30
2023-03-26T08:08:02.952Z,2.80
2023-03-26T08:09:02.927Z,2.50
2023-03-26T08:10:02.926Z,2.60
2023-03-26T08:11:02.901Z,2.30
2023-03-26T08:12:02.891Z,2.60
2023-03-26T08:13:02.870Z,2.10
2023-03-26T08:14:02.838Z,2.80
2023-03-26T08:15:02.847Z,2.50
2023-03-26T08:16:02.877Z,2.30
2023-03-26T08:17:02.799Z,2.40
2023-03-26T08:18:02.819Z,3.20
2023-03-26T08:19:02.780Z,3.80
2023-03-26T08:20:02.811Z,2.90
2023-03-26T08:21:02.837Z,3.00
2023-03-26T08:22:02.822Z,3.00
2023-03-26T08:23:02.738Z,3.10
2023-03-26T08:24:02.746Z,2.80
2023-03-26T08:25:02.732Z,2.80
2023-03-26T08:26:02.745Z,3.20
2023-03-26T08:27:02.717Z,2.70
2023-03-26T08:28:02.711Z,3.10
2023-03-26T08:29:02.703Z,2.80
2023-03-26T08:30:02.707Z,3.40
2023-03-26T08:31:02.732Z,3.60
2023-03-26T08:32:02.655Z,2.90
2023-03-26T08:33:02.684Z,3.90
2023-03-26T08:34:02.664Z,3.20
2023-03-26T08:35:02.610Z,3.50
2023-03-26T08:36:02.653Z,2.70
2023-03-26T08:37:02.573Z,4.50
2023-03-26T08:38:02.607Z,2.50
2023-03-26T08:39:02.575Z,3.70
2023-03-26T08:40:02.567Z,3.00
2023-03-26T08:41:02.598Z,2.70
2023-03-26T08:42:02.578Z,3.40
2023-03-26T08:43:02.517Z,3.10
2023-03-26T08:44:02.529Z,3.30
2023-03-26T08:45:02.497Z,3.00
2023-03-26T08:46:02.547Z,2.90
2023-03-26T08:47:02.507Z,2.60
2023-03-26T08:48:02.508Z,2.90
2023-03-26T08:49:02.477Z,3.40
2023-03-26T08:50:02.451Z,3.30
2023-03-26T08:51:02.467Z,3.30
2023-03-26T08:52:02.438Z,3.10
2023-03-26T08:53:02.464Z,3.50
2023-03-26T08:54:02.423Z,3.20
2023-03-26T08:55:02.422Z,3.10
2023-03-26T08:56:02.402Z,3.20
2023-03-26T08:57:02.412Z,3.60
2023-03-26T08:58:02.881Z,3.20
2023-03-26T08:59:02.385Z,2.90
2023-03-26T09:00:03.076Z,2.70
2023-03-26T09:01:02.341Z,2.90
2023-03-26T09:02:02.384Z,2.90
2023-03-26T09:03:02.332Z,3.20
2023-03-26T09:04:02.339Z,3.00
2023-03-26T09:05:02.282Z,3.00
2023-03-26T09:06:02.291Z,2.90
2023-03-26T09:07:02.236Z,2.80
2023-03-26T09:08:02.238Z,2.80
2023-03-26T09:09:02.225Z,2.20
2023-03-26T09:10:02.212Z,2.70
2023-03-26T09:11:02.237Z,2.80
2023-03-26T09:12:02.188Z,2.70
2023-03-26T09:13:02.176Z,2.60
2023-03-26T09:14:02.182Z,2.50
2023-03-26T09:15:02.161Z,3.00
2023-03-26T09:16:02.235Z,3.50
2023-03-26T09:17:02.125Z,3.30
2023-03-26T09:18:02.178Z,2.90
2023-03-26T09:19:02.109Z,2.70
2023-03-26T09:20:04.862Z,2.80
2023-03-26T09:21:02.104Z,2.80
2023-03-26T09:22:02.080Z,2.90
2023-03-26T09:23:02.086Z,2.60
2023-03-26T09:24:02.075Z,2.70
2023-03-26T09:25:02.074Z,3.20
2023-03-26T09:26:02.058Z,3.20
2023-03-26T09:27:02.021Z,3.20
2023-03-26T09:28:02.023Z,2.80
2023-03-26T09:29:02.048Z,2.60
2023-03-26T09:30:02.005Z,2.90
2023-03-26T09:31:02.037Z,3.40
2023-03-26T09:32:01.994Z,2.80
2023-03-26T09:33:02.007Z,3.20
2023-03-26T09:34:01.961Z,2.90
2023-03-26T09:35:01.955Z,3.20
2023-03-26T09:36:02.019Z,2.50
2023-03-26T09:37:01.960Z,2.70
2023-03-26T09:38:01.965Z,2.90
2023-03-26T09:39:01.917Z,2.20
2023-03-26T09:40:01.894Z,2.80
2023-03-26T09:41:01.903Z,2.80
2023-03-26T09:42:01.880Z,2.80
2023-03-26T09:43:01.881Z,2.60
2023-03-26T09:44:01.849Z,2.50
2023-03-26T09:45:01.850Z,2.40
2023-03-26T09:46:01.879Z,2.50
2023-03-26T09:47:01.816Z,3.20
2023-03-26T09:48:08.362Z,3.10
2023-03-26T09:49:01.783Z,3.10
2023-03-26T09:50:02.741Z,2.90
2023-03-26T09:51:01.777Z,2.60
2023-03-26T09:52:01.783Z,3.20
2023-03-26T09:53:01.779Z,3.10
2023-03-26T09:54:01.793Z,2.50
2023-03-26T09:55:01.730Z,3.00
2023-03-26T09:56:01.803Z,2.70
2023-03-26T09:57:01.759Z,2.80
2023-03-26T09:58:01.769Z,2.70
2023-03-26T09:59:01.674Z,3.00
2023-03-26T10:00:01.680Z,2.90
2023-03-26T10:01:01.987Z,2.90
2023-03-26T10:02:01.685Z,3.10
2023-03-26T10:03:01.669Z,2.70
2023-03-26T10:04:01.655Z,2.90
2023-03-26T10:05:02.120Z,2.60
2023-03-26T10:06:01.870Z,2.80
2023-03-26T10:07:01.592Z,2.80
2023-03-26T10:08:01.616Z,3.00
2023-03-26T10:09:01.594Z,2.80
2023-03-26T10:10:01.573Z,2.70
2023-03-26T10:11:01.549Z,2.60
2023-03-26T10:12:01.556Z,3.20
2023-03-26T10:13:11.944Z,2.80
2023-03-26T10:14:01.586Z,3.10
2023-03-26T10:15:01.506Z,2.90
2023-03-26T10:16:01.518Z,2.60
2023-03-26T10:17:01.532Z,2.50
2023-03-26T10:18:01.534Z,2.90
2023-03-26T10:19:01.524Z,2.80
2023-03-26T10:20:01.494Z,2.90
2023-03-26T10:21:01.463Z,3.10
2023-03-26T10:22:01.442Z,2.60
2023-03-26T10:23:01.422Z,2.60
2023-03-26T10:24:01.487Z,2.60
2023-03-26T10:25:01.406Z,2.70
2023-03-26T10:26:01.379Z,3.00
2023-03-26T10:27:08.705Z,2.30
2023-03-26T10:28:01.353Z,3.10
2023-03-26T10:29:01.344Z,2.40
2023-03-26T10:30:01.346Z,3.10
2023-03-26T10:31:01.369Z,2.30
2023-03-26T10:32:01.302Z,3.00
2023-03-26T10:33:01.364Z,2.80
2023-03-26T10:34:01.318Z,2.80
2023-03-26T10:35:01.287Z,2.70
2023-03-26T10:36:01.388Z,3.50
2023-03-26T10:37:01.407Z,2.90
2023-03-26T10:38:01.562Z,2.80
2023-03-26T10:39:01.236Z,2.30
2023-03-26T10:40:01.214Z,2.40
2023-03-26T10:41:01.228Z,2.60
2023-03-26T10:42:01.191Z,2.90
2023-03-26T10:43:01.173Z,2.60
2023-03-26T10:44:07.832Z,2.30
2023-03-26T10:45:01.279Z,2.30
2023-03-26T10:46:01.635Z,2.40
2023-03-26T10:47:01.345Z,2.90
2023-03-26T10:48:01.427Z,2.80
2023-03-26T10:49:01.391Z,2.10
2023-03-26T10:50:01.099Z,2.60
2023-03-26T10:51:01.104Z,2.50
2023-03-26T10:52:01.099Z,2.40
2023-03-26T10:53:01.075Z,2.80
2023-03-26T10:54:01.317Z,2.40
2023-03-26T10:55:01.281Z,2.50
2023-03-26T10:56:01.040Z,2.60
2023-03-26T10:57:01.316Z,2.80
2023-03-26T10:58:01.360Z,2.60
2023-03-26T10:59:01.051Z,3.20
2023-03-26T11:00:01.061Z,2.70
2023-03-26T11:01:02.199Z,2.80
2023-03-26T11:02:01.053Z,2.30
2023-03-26T11:03:00.984Z,2.40
2023-03-26T11:04:00.941Z,2.90
2023-03-26T11:05:00.925Z,2.40
2023-03-26T11:06:01.065Z,2.60
2023-03-26T11:07:00.916Z,2.70
2023-03-26T11:08:00.904Z,2.60
2023-03-26T11:09:00.908Z,2.40
2023-03-26T11:10:00.894Z,2.50
2023-03-26T11:11:00.874Z,2.50
2023-03-26T11:12:00.869Z,2.80
2023-03-26T11:13:00.862Z,2.60
2023-03-26T11:14:00.847Z,2.50
2023-03-26T11:15:00.853Z,2.40
2023-03-26T11:16:01.174Z,3.00
2023-03-26T11:17:00.797Z,2.30
2023-03-26T11:18:00.841Z,2.80
2023-03-26T11:19:00.770Z,2.50
2023-03-26T11:20:00.778Z,2.70
2023-03-26T11:21:18.873Z,2.60
2023-03-26T11:22:00.738Z,2.40
2023-03-26T11:23:00.741Z,3.00
2023-03-26T11:24:05.347Z,2.30
2023-03-26T11:25:00.737Z,3.10
2023-03-26T11:26:00.744Z,2.30
2023-03-26T11:27:16.031Z,2.40
2023-03-26T11:28:00.679Z,2.60
2023-03-26T11:29:03.764Z,3.20
2023-03-26T11:30:00.773Z,2.80
2023-03-26T11:31:00.691Z,2.00
2023-03-26T11:32:00.641Z,2.20
2023-03-26T11:33:00.671Z,2.40
2023-03-26T11:34:00.691Z,2.40
2023-03-26T11:35:00.600Z,2.60
2023-03-26T11:36:00.603Z,2.40
2023-03-26T11:37:00.591Z,2.20
2023-03-26T11:38:00.570Z,2.30
2023-03-26T11:39:00.554Z,2.50
2023-03-26T11:40:00.572Z,2.80
2023-03-26T11:41:00.567Z,2.60
2023-03-26T11:42:00.520Z,2.50
2023-03-26T11:43:00.525Z,2.60
2023-03-26T11:44:00.510Z,2.70
2023-03-26T11:45:00.494Z,2.90
2023-03-26T11:46:00.509Z,2.60
2023-03-26T11:47:00.797Z,2.50
2023-03-26T11:48:00.492Z,2.70
2023-03-26T11:49:00.440Z,2.50
2023-03-26T11:50:00.427Z,2.50
2023-03-26T11:51:00.432Z,3.00
2023-03-26T11:52:00.410Z,2.90
2023-03-26T11:53:00.432Z,2.30
2023-03-26T11:54:00.397Z,2.90
2023-03-26T11:55:00.422Z,2.00
2023-03-26T11:56:00.363Z,2.80
2023-03-26T11:57:06.489Z,2.40
2023-03-26T11:58:00.372Z,2.60
2023-03-26T11:59:00.327Z,2.40
2023-03-26T12:00:00.307Z,2.00
2023-03-26T12:01:00.302Z,2.50
2023-03-26T12:02:00.394Z,2.70
2023-03-26T12:03:00.325Z,2.70
2023-03-26T12:04:00.301Z,2.50
2023-03-26T12:05:00.313Z,2.90
2023-03-26T12:06:00.244Z,2.60
2023-03-26T12:07:00.246Z,2.30
2023-03-26T12:08:00.281Z,3.40
2023-03-26T12:09:00.210Z,2.80
2023-03-26T12:10:17.841Z,2.50
2023-03-26T12:11:00.195Z,2.60
2023-03-26T12:12:00.190Z,2.30
2023-03-26T12:13:00.188Z,2.60
2023-03-26T12:14:00.153Z,2.40
2023-03-26T12:15:00.153Z,2.30
2023-03-26T12:16:00.190Z,2.10
2023-03-26T12:17:00.232Z,2.30
2023-03-26T12:18:00.200Z,2.50
2023-03-26T12:19:00.137Z,2.60
2023-03-26T12:20:00.137Z,2.50
2023-03-26T12:21:00.086Z,2.30
2023-03-26T12:22:00.110Z,2.60
2023-03-26T12:23:00.108Z,2.10
2023-03-26T12:24:00.058Z,2.70
2023-03-26T12:25:00.032Z,2.90
2023-03-26T12:26:00.034Z,2.30
2023-03-26T12:27:00.015Z,2.90
2023-03-26T12:28:00.030Z,2.50
2023-03-26T12:28:59.985Z,2.40
2023-03-26T12:30:00.018Z,2.40
2023-03-26T12:31:13.921Z,2.60
2023-03-26T12:32:00.004Z,2.80
2023-03-26T12:33:00.051Z,3.10
2023-03-26T12:33:59.935Z,2.00
2023-03-26T12:34:59.919Z,2.50
2023-03-26T12:36:00.033Z,2.20
2023-03-26T12:36:59.902Z,2.20
2023-03-26T12:37:59.945Z,3.30
2023-03-26T12:39:16.968Z,2.60
2023-03-26T12:40:17.124Z,2.70
2023-03-26T12:40:59.858Z,2.30
2023-03-26T12:43:40.262Z,2.00
2023-03-26T12:44:59.581Z,2.20
2023-03-26T12:45:05.169Z,2.50
2023-03-26T12:48:00.659Z,2.40
2023-03-26T12:48:08.047Z,2.70
2023-03-26T12:48:13.558Z,2.40
2023-03-26T12:49:13.596Z,2.70
2023-03-26T12:50:13.474Z,2.10
2023-03-26T12:51:13.459Z,2.60
2023-03-26T12:52:13.449Z,2.70
2023-03-26T12:53:13.408Z,2.70
2023-03-26T12:54:13.408Z,2.90
2023-03-26T12:55:13.410Z,2.30
2023-03-26T12:56:13.400Z,2.30
2023-03-26T12:57:13.571Z,3.60
2023-03-26T12:58:14.178Z,2.00
2023-03-26T12:59:13.373Z,2.10
2023-03-26T13:00:13.341Z,1.90
2023-03-26T13:01:13.365Z,2.50
2023-03-26T13:02:13.374Z,2.20
2023-03-26T13:03:13.362Z,2.00
2023-03-26T13:04:13.318Z,2.90
2023-03-26T13:05:13.291Z,1.90
2023-03-26T13:06:13.310Z,2.20
2023-03-26T13:07:13.267Z,2.60
2023-03-26T13:08:13.253Z,2.40
2023-03-26T13:09:13.338Z,3.00
2023-03-26T13:10:13.239Z,1.90
2023-03-26T13:11:13.248Z,2.50
2023-03-26T13:12:13.351Z,2.20
2023-03-26T13:13:13.218Z,2.60
2023-03-26T13:14:13.196Z,2.70
2023-03-26T13:15:13.354Z,3.60
2023-03-26T13:16:13.202Z,3.30
2023-03-26T13:17:13.288Z,2.70
2023-03-26T13:18:13.210Z,3.70
2023-03-26T13:19:13.137Z,2.80